sensor_id;sensor_type;location;lat;lon;timestamp;temperature;humidity
6824;DHT22;58633;49.470;11.004;2022-10-12T00:01:10;14.20;72.50
6824;DHT22;58633;49.470;11.004;2022-10-12T00:03:36;14.00;71.90
6824;DHT22;58633;49.470;11.004;2022-10-12T00:06:16;14.00;71.90
6824;DHT22;58633;49.470;11.004;2022-10-12T00:08:43;13.90;71.90
6824;DHT22;58633;49.470;11.004;2022-10-12T00:11:15;14.00;72.70
6824;DHT22;58633;49.470;11.004;2022-10-12T00:13:41;13.90;73.00
6824;DHT22;58633;49.470;11.004;2022-10-12T00:16:08;13.90;73.20
6824;DHT22;58633;49.470;11.004;2022-10-12T00:18:34;13.80;73.50
6824;DHT22;58633;49.470;11.004;2022-10-12T00:21:06;13.80;73.20
6824;DHT22;58633;49.470;11.004;2022-10-12T00:23:33;13.80;73.20
6824;DHT22;58633;49.470;11.004;2022-10-12T00:26:09;13.80;73.30
6824;DHT22;58633;49.470;11.004;2022-10-12T00:28:35;13.70;73.90
6824;DHT22;58633;49.470;11.004;2022-10-12T00:31:06;13.80;73.70
6824;DHT22;58633;49.470;11.004;2022-10-12T00:33:32;14.80;75.30
6824;DHT22;58633;49.470;11.004;2022-10-12T00:35:58;13.60;73.90
6824;DHT22;58633;49.470;11.004;2022-10-12T00:38:24;13.60;74.40
6824;DHT22;58633;49.470;11.004;2022-10-12T00:40:50;13.50;74.60
6824;DHT22;58633;49.470;11.004;2022-10-12T00:43:27;13.50;75.10
6824;DHT22;58633;49.470;11.004;2022-10-12T00:45:53;13.60;75.60
6824;DHT22;58633;49.470;11.004;2022-10-12T00:48:19;13.80;75.70
6824;DHT22;58633;49.470;11.004;2022-10-12T00:50:45;13.80;75.10
6824;DHT22;58633;49.470;11.004;2022-10-12T00:53:15;13.60;75.60
6824;DHT22;58633;49.470;11.004;2022-10-12T00:55:48;13.80;75.30
6824;DHT22;58633;49.470;11.004;2022-10-12T00:58:15;13.50;75.00
6824;DHT22;58633;49.470;11.004;2022-10-12T01:00:42;13.80;75.80
6824;DHT22;58633;49.470;11.004;2022-10-12T01:03:09;13.70;76.20
6824;DHT22;58633;49.470;11.004;2022-10-12T01:05:38;13.50;75.80
6824;DHT22;58633;49.470;11.004;2022-10-12T01:08:04;13.60;76.00
6824;DHT22;58633;49.470;11.004;2022-10-12T01:10:29;13.50;76.70
6824;DHT22;58633;49.470;11.004;2022-10-12T01:12:56;13.50;77.10
6824;DHT22;58633;49.470;11.004;2022-10-12T01:15:26;13.50;78.00
6824;DHT22;58633;49.470;11.004;2022-10-12T01:18:05;13.60;78.40
6824;DHT22;58633;49.470;11.004;2022-10-12T01:21:00;13.40;78.30
6824;DHT22;58633;49.470;11.004;2022-10-12T01:26:55;13.30;79.20
6824;DHT22;58633;49.470;11.004;2022-10-12T01:32:30;13.10;79.80
6824;DHT22;58633;49.470;11.004;2022-10-12T01:37:50;13.20;81.00
6824;DHT22;58633;49.470;11.004;2022-10-12T01:40:28;13.10;82.00
6824;DHT22;58633;49.470;11.004;2022-10-12T01:42:56;12.90;81.70
6824;DHT22;58633;49.470;11.004;2022-10-12T01:45:22;13.10;82.70
6824;DHT22;58633;49.470;11.004;2022-10-12T01:47:50;13.10;82.90
6824;DHT22;58633;49.470;11.004;2022-10-12T01:50:17;13.00;83.60
6824;DHT22;58633;49.470;11.004;2022-10-12T01:55:56;13.00;84.00
6824;DHT22;58633;49.470;11.004;2022-10-12T02:03:57;12.90;84.80
6824;DHT22;58633;49.470;11.004;2022-10-12T02:06:29;12.80;86.00
6824;DHT22;58633;49.470;11.004;2022-10-12T02:09:12;12.70;86.60
6824;DHT22;58633;49.470;11.004;2022-10-12T02:11:41;12.70;86.60
6824;DHT22;58633;49.470;11.004;2022-10-12T02:14:14;12.60;88.60
6824;DHT22;58633;49.470;11.004;2022-10-12T02:16:45;12.60;88.10
6824;DHT22;58633;49.470;11.004;2022-10-12T02:19:16;12.70;89.50
6824;DHT22;58633;49.470;11.004;2022-10-12T02:21:44;12.50;87.60
6824;DHT22;58633;49.470;11.004;2022-10-12T02:24:11;12.50;89.50
6824;DHT22;58633;49.470;11.004;2022-10-12T02:26:40;12.50;89.90
6824;DHT22;58633;49.470;11.004;2022-10-12T02:29:10;12.40;90.50
6824;DHT22;58633;49.470;11.004;2022-10-12T02:34:18;12.10;89.70
6824;DHT22;58633;49.470;11.004;2022-10-12T02:38:04;12.10;90.30
6824;DHT22;58633;49.470;11.004;2022-10-12T02:40:28;12.30;91.30
6824;DHT22;58633;49.470;11.004;2022-10-12T02:43:01;12.20;91.90
6824;DHT22;58633;49.470;11.004;2022-10-12T02:45:30;12.20;91.50
6824;DHT22;58633;49.470;11.004;2022-10-12T02:47:58;12.10;91.30
6824;DHT22;58633;49.470;11.004;2022-10-12T02:50:25;11.90;91.40
6824;DHT22;58633;49.470;11.004;2022-10-12T02:52:51;11.90;91.60
6824;DHT22;58633;49.470;11.004;2022-10-12T02:55:17;11.90;92.40
6824;DHT22;58633;49.470;11.004;2022-10-12T02:57:43;12.00;93.00
6824;DHT22;58633;49.470;11.004;2022-10-12T03:00:09;12.00;92.70
6824;DHT22;58633;49.470;11.004;2022-10-12T03:02:35;11.90;91.40
6824;DHT22;58633;49.470;11.004;2022-10-12T03:05:00;11.80;92.10
6824;DHT22;58633;49.470;11.004;2022-10-12T03:07:26;11.60;92.30
6824;DHT22;58633;49.470;11.004;2022-10-12T03:09:52;11.70;92.80
6824;DHT22;58633;49.470;11.004;2022-10-12T03:12:17;11.90;93.80
6824;DHT22;58633;49.470;11.004;2022-10-12T03:14:43;11.80;92.30
6824;DHT22;58633;49.470;11.004;2022-10-12T03:17:08;11.80;93.00
6824;DHT22;58633;49.470;11.004;2022-10-12T03:19:34;11.50;92.60
6824;DHT22;58633;49.470;11.004;2022-10-12T03:22:01;11.60;94.00
6824;DHT22;58633;49.470;11.004;2022-10-12T03:24:26;11.60;94.20
6824;DHT22;58633;49.470;11.004;2022-10-12T03:26:52;11.40;93.10
6824;DHT22;58633;49.470;11.004;2022-10-12T03:29:17;11.40;92.90
6824;DHT22;58633;49.470;11.004;2022-10-12T03:31:43;11.40;93.10
6824;DHT22;58633;49.470;11.004;2022-10-12T03:34:08;11.50;94.20
6824;DHT22;58633;49.470;11.004;2022-10-12T03:36:34;11.40;93.90
6824;DHT22;58633;49.470;11.004;2022-10-12T03:38:59;11.40;94.20
6824;DHT22;58633;49.470;11.004;2022-10-12T03:41:25;11.50;94.20
6824;DHT22;58633;49.470;11.004;2022-10-12T03:43:50;11.20;95.00
6824;DHT22;58633;49.470;11.004;2022-10-12T03:46:17;11.30;94.30
6824;DHT22;58633;49.470;11.004;2022-10-12T03:48:42;11.30;94.60
6824;DHT22;58633;49.470;11.004;2022-10-12T03:51:08;11.30;93.50
6824;DHT22;58633;49.470;11.004;2022-10-12T03:53:34;11.10;94.30
6824;DHT22;58633;49.470;11.004;2022-10-12T03:55:59;11.20;94.40
6824;DHT22;58633;49.470;11.004;2022-10-12T03:58:25;11.20;94.70
6824;DHT22;58633;49.470;11.004;2022-10-12T04:00:53;11.00;93.80
6824;DHT22;58633;49.470;11.004;2022-10-12T04:03:19;10.70;94.50
6824;DHT22;58633;49.470;11.004;2022-10-12T04:05:55;11.20;94.60
6824;DHT22;58633;49.470;11.004;2022-10-12T04:08:22;10.70;94.10
6824;DHT22;58633;49.470;11.004;2022-10-12T04:10:47;11.10;96.30
6824;DHT22;58633;49.470;11.004;2022-10-12T04:13:15;11.00;95.50
6824;DHT22;58633;49.470;11.004;2022-10-12T04:18:07;11.00;95.60
6824;DHT22;58633;49.470;11.004;2022-10-12T04:20:33;11.10;95.10
6824;DHT22;58633;49.470;11.004;2022-10-12T04:22:59;11.10;94.00
6824;DHT22;58633;49.470;11.004;2022-10-12T04:25:24;11.10;93.90
6824;DHT22;58633;49.470;11.004;2022-10-12T04:27:50;10.90;94.70
6824;DHT22;58633;49.470;11.004;2022-10-12T04:30:15;11.10;95.30
6824;DHT22;58633;49.470;11.004;2022-10-12T04:32:41;11.00;95.20
6824;DHT22;58633;49.470;11.004;2022-10-12T04:35:07;10.90;95.10
6824;DHT22;58633;49.470;11.004;2022-10-12T04:37:32;10.60;94.40
6824;DHT22;58633;49.470;11.004;2022-10-12T04:39:59;10.80;94.10
6824;DHT22;58633;49.470;11.004;2022-10-12T04:42:24;10.70;94.50
6824;DHT22;58633;49.470;11.004;2022-10-12T04:44:50;10.80;95.30
6824;DHT22;58633;49.470;11.004;2022-10-12T04:47:15;10.30;95.50
6824;DHT22;58633;49.470;11.004;2022-10-12T04:49:41;10.60;95.70
6824;DHT22;58633;49.470;11.004;2022-10-12T04:52:07;10.60;96.00
6824;DHT22;58633;49.470;11.004;2022-10-12T04:54:32;10.70;96.50
6824;DHT22;58633;49.470;11.004;2022-10-12T04:56:58;10.30;95.40
6824;DHT22;58633;49.470;11.004;2022-10-12T04:59:24;10.50;96.20
6824;DHT22;58633;49.470;11.004;2022-10-12T05:01:50;10.70;97.50
6824;DHT22;58633;49.470;11.004;2022-10-12T05:04:15;10.60;97.70
6824;DHT22;58633;49.470;11.004;2022-10-12T05:06:41;10.90;95.70
6824;DHT22;58633;49.470;11.004;2022-10-12T05:09:07;10.60;96.00
6824;DHT22;58633;49.470;11.004;2022-10-12T05:11:32;10.80;96.30
6824;DHT22;58633;49.470;11.004;2022-10-12T05:13:58;10.80;96.00
6824;DHT22;58633;49.470;11.004;2022-10-12T05:16:24;10.90;95.50
6824;DHT22;58633;49.470;11.004;2022-10-12T05:18:49;10.90;96.00
6824;DHT22;58633;49.470;11.004;2022-10-12T05:21:16;10.90;96.30
6824;DHT22;58633;49.470;11.004;2022-10-12T05:23:42;11.00;95.20
6824;DHT22;58633;49.470;11.004;2022-10-12T05:26:07;11.20;94.90
6824;DHT22;58633;49.470;11.004;2022-10-12T05:28:33;10.90;94.90
6824;DHT22;58633;49.470;11.004;2022-10-12T05:30:58;11.20;95.20
6824;DHT22;58633;49.470;11.004;2022-10-12T05:33:24;11.20;94.80
6824;DHT22;58633;49.470;11.004;2022-10-12T05:35:49;11.00;94.20
6824;DHT22;58633;49.470;11.004;2022-10-12T05:38:15;11.00;94.70
6824;DHT22;58633;49.470;11.004;2022-10-12T05:40:41;11.00;94.70
6824;DHT22;58633;49.470;11.004;2022-10-12T05:43:07;11.10;95.00
6824;DHT22;58633;49.470;11.004;2022-10-12T05:45:32;11.40;94.10
6824;DHT22;58633;49.470;11.004;2022-10-12T05:47:58;11.20;94.40
6824;DHT22;58633;49.470;11.004;2022-10-12T05:52:49;11.10;93.80
6824;DHT22;58633;49.470;11.004;2022-10-12T05:55:15;11.30;94.60
6824;DHT22;58633;49.470;11.004;2022-10-12T05:57:40;11.20;93.70
6824;DHT22;58633;49.470;11.004;2022-10-12T06:00:07;11.20;93.20
6824;DHT22;58633;49.470;11.004;2022-10-12T06:02:33;11.20;93.00
6824;DHT22;58633;49.470;11.004;2022-10-12T06:04:59;11.30;93.70
6824;DHT22;58633;49.470;11.004;2022-10-12T06:07:25;11.10;93.90
6824;DHT22;58633;49.470;11.004;2022-10-12T06:09:51;11.40;93.20
6824;DHT22;58633;49.470;11.004;2022-10-12T06:12:16;11.20;93.20
6824;DHT22;58633;49.470;11.004;2022-10-12T06:14:42;11.50;92.80
6824;DHT22;58633;49.470;11.004;2022-10-12T06:17:08;11.60;92.00
6824;DHT22;58633;49.470;11.004;2022-10-12T06:19:35;11.30;92.00
6824;DHT22;58633;49.470;11.004;2022-10-12T06:22:01;11.50;91.10
6824;DHT22;58633;49.470;11.004;2022-10-12T06:24:26;11.70;90.80
6824;DHT22;58633;49.470;11.004;2022-10-12T06:26:52;11.60;91.00
6824;DHT22;58633;49.470;11.004;2022-10-12T06:29:19;11.60;90.60
6824;DHT22;58633;49.470;11.004;2022-10-12T06:31:47;11.60;90.20
6824;DHT22;58633;49.470;11.004;2022-10-12T06:34:13;11.60;90.40
6824;DHT22;58633;49.470;11.004;2022-10-12T06:36:38;11.70;89.90
6824;DHT22;58633;49.470;11.004;2022-10-12T06:39:04;11.70;88.60
6824;DHT22;58633;49.470;11.004;2022-10-12T06:41:30;11.60;89.00
6824;DHT22;58633;49.470;11.004;2022-10-12T06:46:21;11.80;88.60
6824;DHT22;58633;49.470;11.004;2022-10-12T06:48:47;11.70;86.10
6824;DHT22;58633;49.470;11.004;2022-10-12T06:51:13;11.90;86.80
6824;DHT22;58633;49.470;11.004;2022-10-12T06:53:39;11.80;86.80
6824;DHT22;58633;49.470;11.004;2022-10-12T06:56:06;11.90;87.40
6824;DHT22;58633;49.470;11.004;2022-10-12T06:58:31;12.10;87.00
6824;DHT22;58633;49.470;11.004;2022-10-12T07:00:57;12.30;87.10
6824;DHT22;58633;49.470;11.004;2022-10-12T07:03:26;12.10;85.40
6824;DHT22;58633;49.470;11.004;2022-10-12T07:05:52;12.20;85.70
6824;DHT22;58633;49.470;11.004;2022-10-12T07:08:18;12.20;85.00
6824;DHT22;58633;49.470;11.004;2022-10-12T07:10:43;15.70;89.00
6824;DHT22;58633;49.470;11.004;2022-10-12T07:15:36;12.20;84.60
6824;DHT22;58633;49.470;11.004;2022-10-12T07:18:02;12.60;85.40
6824;DHT22;58633;49.470;11.004;2022-10-12T07:20:27;12.40;83.60
6824;DHT22;58633;49.470;11.004;2022-10-12T07:22:53;12.40;83.50
6824;DHT22;58633;49.470;11.004;2022-10-12T07:25:18;12.40;83.90
6824;DHT22;58633;49.470;11.004;2022-10-12T07:27:47;12.40;83.20
6824;DHT22;58633;49.470;11.004;2022-10-12T07:30:13;12.40;82.80
6824;DHT22;58633;49.470;11.004;2022-10-12T07:32:39;12.50;82.20
6824;DHT22;58633;49.470;11.004;2022-10-12T07:35:06;12.50;82.10
6824;DHT22;58633;49.470;11.004;2022-10-12T07:37:32;12.70;81.40
6824;DHT22;58633;49.470;11.004;2022-10-12T07:39:57;12.60;81.70
6824;DHT22;58633;49.470;11.004;2022-10-12T07:42:23;12.60;81.30
6824;DHT22;58633;49.470;11.004;2022-10-12T07:44:49;12.90;80.90
6824;DHT22;58633;49.470;11.004;2022-10-12T07:47:16;13.00;80.90
6824;DHT22;58633;49.470;11.004;2022-10-12T07:49:42;12.90;81.40
6824;DHT22;58633;49.470;11.004;2022-10-12T07:54:33;13.10;80.40
6824;DHT22;58633;49.470;11.004;2022-10-12T07:57:00;12.90;80.20
6824;DHT22;58633;49.470;11.004;2022-10-12T07:59:25;13.00;80.30
6824;DHT22;58633;49.470;11.004;2022-10-12T08:01:51;12.70;80.20
6824;DHT22;58633;49.470;11.004;2022-10-12T08:04:16;12.90;81.20
6824;DHT22;58633;49.470;11.004;2022-10-12T08:06:43;12.90;80.90
6824;DHT22;58633;49.470;11.004;2022-10-12T08:09:09;13.10;81.40
6824;DHT22;58633;49.470;11.004;2022-10-12T08:11:39;13.00;81.80
6824;DHT22;58633;49.470;11.004;2022-10-12T08:14:05;13.20;81.40
6824;DHT22;58633;49.470;11.004;2022-10-12T08:16:32;13.60;79.90
6824;DHT22;58633;49.470;11.004;2022-10-12T08:18:59;13.40;79.50
6824;DHT22;58633;49.470;11.004;2022-10-12T08:21:24;13.50;80.10
6824;DHT22;58633;49.470;11.004;2022-10-12T08:23:50;13.50;79.40
6824;DHT22;58633;49.470;11.004;2022-10-12T08:26:16;13.60;79.40
6824;DHT22;58633;49.470;11.004;2022-10-12T08:28:42;13.60;79.40
6824;DHT22;58633;49.470;11.004;2022-10-12T08:31:11;13.70;78.20
6824;DHT22;58633;49.470;11.004;2022-10-12T08:33:37;13.80;78.60
6824;DHT22;58633;49.470;11.004;2022-10-12T08:36:04;13.80;79.10
6824;DHT22;58633;49.470;11.004;2022-10-12T08:38:31;13.90;78.90
6824;DHT22;58633;49.470;11.004;2022-10-12T08:43:57;14.10;77.90
6824;DHT22;58633;49.470;11.004;2022-10-12T08:46:25;14.20;77.70
6824;DHT22;58633;49.470;11.004;2022-10-12T08:51:25;14.60;77.30
6824;DHT22;58633;49.470;11.004;2022-10-12T08:54:01;14.90;76.70
6824;DHT22;58633;49.470;11.004;2022-10-12T08:58:53;14.90;75.30
6824;DHT22;58633;49.470;11.004;2022-10-12T09:15:00;15.50;73.20
6824;DHT22;58633;49.470;11.004;2022-10-12T09:17:36;15.50;72.80
6824;DHT22;58633;49.470;11.004;2022-10-12T09:20:15;15.60;72.00
6824;DHT22;58633;49.470;11.004;2022-10-12T09:22:45;15.70;72.40
6824;DHT22;58633;49.470;11.004;2022-10-12T09:25:13;15.80;71.60
6824;DHT22;58633;49.470;11.004;2022-10-12T09:27:43;15.80;72.00
6824;DHT22;58633;49.470;11.004;2022-10-12T09:30:15;15.90;71.00
6824;DHT22;58633;49.470;11.004;2022-10-12T09:33:04;16.00;71.30
6824;DHT22;58633;49.470;11.004;2022-10-12T09:35:33;16.30;70.60
6824;DHT22;58633;49.470;11.004;2022-10-12T09:38:00;16.40;70.30
6824;DHT22;58633;49.470;11.004;2022-10-12T09:40:29;17.70;71.90
6824;DHT22;58633;49.470;11.004;2022-10-12T09:42:58;16.70;69.20
6824;DHT22;58633;49.470;11.004;2022-10-12T09:45:25;16.60;69.60
6824;DHT22;58633;49.470;11.004;2022-10-12T09:50:39;16.90;69.20
6824;DHT22;58633;49.470;11.004;2022-10-12T09:53:12;17.20;68.50
6824;DHT22;58633;49.470;11.004;2022-10-12T09:55:39;17.10;68.50
6824;DHT22;58633;49.470;11.004;2022-10-12T09:58:17;17.30;68.70
6824;DHT22;58633;49.470;11.004;2022-10-12T10:00:44;17.60;67.70
6824;DHT22;58633;49.470;11.004;2022-10-12T10:03:22;17.70;68.00
6824;DHT22;58633;49.470;11.004;2022-10-12T10:06:01;18.00;67.70
6824;DHT22;58633;49.470;11.004;2022-10-12T10:08:27;18.10;66.50
6824;DHT22;58633;49.470;11.004;2022-10-12T10:10:55;18.00;66.00
6824;DHT22;58633;49.470;11.004;2022-10-12T10:13:23;17.90;66.10
6824;DHT22;58633;49.470;11.004;2022-10-12T10:16:01;18.00;66.30
6824;DHT22;58633;49.470;11.004;2022-10-12T10:18:43;18.00;66.00
6824;DHT22;58633;49.470;11.004;2022-10-12T10:21:11;18.10;66.10
6824;DHT22;58633;49.470;11.004;2022-10-12T10:23:52;18.20;66.90
6824;DHT22;58633;49.470;11.004;2022-10-12T10:26:20;18.30;66.10
6824;DHT22;58633;49.470;11.004;2022-10-12T10:28:48;18.40;65.90
6824;DHT22;58633;49.470;11.004;2022-10-12T10:36:33;18.40;65.20
6824;DHT22;58633;49.470;11.004;2022-10-12T10:39:04;18.60;65.10
6824;DHT22;58633;49.470;11.004;2022-10-12T10:41:39;18.50;64.80
6824;DHT22;58633;49.470;11.004;2022-10-12T10:44:28;18.40;65.20
6824;DHT22;58633;49.470;11.004;2022-10-12T10:46:58;18.70;65.60
6824;DHT22;58633;49.470;11.004;2022-10-12T10:52:06;19.10;65.20
6824;DHT22;58633;49.470;11.004;2022-10-12T10:54:35;19.50;63.90
6824;DHT22;58633;49.470;11.004;2022-10-12T10:57:12;19.30;63.40
6824;DHT22;58633;49.470;11.004;2022-10-12T11:00:03;19.40;63.80
6824;DHT22;58633;49.470;11.004;2022-10-12T11:02:51;19.20;63.90
6824;DHT22;58633;49.470;11.004;2022-10-12T11:05:29;18.90;64.30
6824;DHT22;58633;49.470;11.004;2022-10-12T11:08:09;19.30;64.60
6824;DHT22;58633;49.470;11.004;2022-10-12T11:10:51;19.70;63.20
6824;DHT22;58633;49.470;11.004;2022-10-12T11:13:32;19.70;62.30
6824;DHT22;58633;49.470;11.004;2022-10-12T11:16:13;19.90;62.90
6824;DHT22;58633;49.470;11.004;2022-10-12T11:18:55;19.80;62.80
6824;DHT22;58633;49.470;11.004;2022-10-12T11:21:34;20.10;62.90
6824;DHT22;58633;49.470;11.004;2022-10-12T11:24:14;20.20;63.50
6824;DHT22;58633;49.470;11.004;2022-10-12T11:26:56;20.10;61.90
6824;DHT22;58633;49.470;11.004;2022-10-12T11:29:24;19.80;62.20
6824;DHT22;58633;49.470;11.004;2022-10-12T11:32:05;19.80;62.70
6824;DHT22;58633;49.470;11.004;2022-10-12T11:34:48;19.80;63.50
6824;DHT22;58633;49.470;11.004;2022-10-12T11:37:21;19.90;62.70
6824;DHT22;58633;49.470;11.004;2022-10-12T11:39:51;20.10;62.30
6824;DHT22;58633;49.470;11.004;2022-10-12T11:42:28;20.20;62.30
6824;DHT22;58633;49.470;11.004;2022-10-12T11:44:55;20.50;62.10
6824;DHT22;58633;49.470;11.004;2022-10-12T11:47:39;20.70;61.40
6824;DHT22;58633;49.470;11.004;2022-10-12T11:50:29;21.00;61.10
6824;DHT22;58633;49.470;11.004;2022-10-12T11:52:59;21.30;61.10
6824;DHT22;58633;49.470;11.004;2022-10-12T11:58:29;21.50;59.70
6824;DHT22;58633;49.470;11.004;2022-10-12T12:01:05;21.40;59.50
6824;DHT22;58633;49.470;11.004;2022-10-12T12:11:22;21.10;59.70
6824;DHT22;58633;49.470;11.004;2022-10-12T12:13:49;21.10;59.90
6824;DHT22;58633;49.470;11.004;2022-10-12T12:24:38;21.40;59.40
6824;DHT22;58633;49.470;11.004;2022-10-12T12:27:45;21.30;59.00
6824;DHT22;58633;49.470;11.004;2022-10-12T12:32:50;21.00;59.80
6824;DHT22;58633;49.470;11.004;2022-10-12T12:35:28;20.90;59.70
6824;DHT22;58633;49.470;11.004;2022-10-12T12:38:23;20.80;59.70
6824;DHT22;58633;49.470;11.004;2022-10-12T12:46:08;20.80;60.30
6824;DHT22;58633;49.470;11.004;2022-10-12T12:51:06;21.40;60.00
6824;DHT22;58633;49.470;11.004;2022-10-12T12:53:41;22.70;58.50
6824;DHT22;58633;49.470;11.004;2022-10-12T12:59:37;22.80;57.60
6824;DHT22;58633;49.470;11.004;2022-10-12T13:05:35;22.60;57.00
6824;DHT22;58633;49.470;11.004;2022-10-12T13:08:25;22.60;57.30
6824;DHT22;58633;49.470;11.004;2022-10-12T13:14:12;22.60;56.60
6824;DHT22;58633;49.470;11.004;2022-10-12T13:16:56;22.80;57.10
6824;DHT22;58633;49.470;11.004;2022-10-12T13:19:23;23.10;56.60
6824;DHT22;58633;49.470;11.004;2022-10-12T13:21:51;23.30;56.00
6824;DHT22;58633;49.470;11.004;2022-10-12T13:24:51;23.70;55.80
6824;DHT22;58633;49.470;11.004;2022-10-12T13:27:19;24.00;55.00
6824;DHT22;58633;49.470;11.004;2022-10-12T13:29:54;24.10;55.40
6824;DHT22;58633;49.470;11.004;2022-10-12T13:32:52;24.30;54.70
6824;DHT22;58633;49.470;11.004;2022-10-12T13:35:39;24.20;54.30
6824;DHT22;58633;49.470;11.004;2022-10-12T13:40:41;24.40;53.70
6824;DHT22;58633;49.470;11.004;2022-10-12T13:43:50;24.40;54.00
6824;DHT22;58633;49.470;11.004;2022-10-12T13:46:36;24.50;54.20
6824;DHT22;58633;49.470;11.004;2022-10-12T13:52:32;23.90;54.10
6824;DHT22;58633;49.470;11.004;2022-10-12T13:54:43;23.70;54.30
6824;DHT22;58633;49.470;11.004;2022-10-12T13:57:44;23.70;54.50
6824;DHT22;58633;49.470;11.004;2022-10-12T14:02:40;23.70;54.60
6824;DHT22;58633;49.470;11.004;2022-10-12T14:05:16;23.70;54.40
6824;DHT22;58633;49.470;11.004;2022-10-12T14:07:43;23.50;54.60
6824;DHT22;58633;49.470;11.004;2022-10-12T14:10:20;23.60;55.40
6824;DHT22;58633;49.470;11.004;2022-10-12T14:12:52;23.60;55.00
6824;DHT22;58633;49.470;11.004;2022-10-12T14:15:19;23.30;55.20
6824;DHT22;58633;49.470;11.004;2022-10-12T14:17:47;23.20;55.30
6824;DHT22;58633;49.470;11.004;2022-10-12T14:20:32;23.30;55.60
6824;DHT22;58633;49.470;11.004;2022-10-12T14:23:13;23.10;55.40
6824;DHT22;58633;49.470;11.004;2022-10-12T14:25:50;23.20;55.60
6824;DHT22;58633;49.470;11.004;2022-10-12T14:28:39;23.20;55.20
6824;DHT22;58633;49.470;11.004;2022-10-12T14:31:05;23.00;55.70
6824;DHT22;58633;49.470;11.004;2022-10-12T14:33:31;22.90;55.90
6824;DHT22;58633;49.470;11.004;2022-10-12T14:38:49;23.00;55.90
6824;DHT22;58633;49.470;11.004;2022-10-12T14:41:49;22.90;56.00
6824;DHT22;58633;49.470;11.004;2022-10-12T14:44:17;22.50;55.90
6824;DHT22;58633;49.470;11.004;2022-10-12T14:47:01;22.70;56.40
6824;DHT22;58633;49.470;11.004;2022-10-12T14:49:43;22.70;56.50
6824;DHT22;58633;49.470;11.004;2022-10-12T14:54:51;22.80;56.30
6824;DHT22;58633;49.470;11.004;2022-10-12T14:57:18;22.70;55.80
6824;DHT22;58633;49.470;11.004;2022-10-12T14:59:43;22.50;56.20
6824;DHT22;58633;49.470;11.004;2022-10-12T15:04:44;22.70;56.30
6824;DHT22;58633;49.470;11.004;2022-10-12T15:07:16;22.40;56.10
6824;DHT22;58633;49.470;11.004;2022-10-12T15:09:43;22.30;56.30
6824;DHT22;58633;49.470;11.004;2022-10-12T15:12:11;22.40;56.50
6824;DHT22;58633;49.470;11.004;2022-10-12T15:14:37;22.40;56.10
6824;DHT22;58633;49.470;11.004;2022-10-12T15:17:03;22.10;55.60
6824;DHT22;58633;49.470;11.004;2022-10-12T15:19:29;22.00;56.00
6824;DHT22;58633;49.470;11.004;2022-10-12T15:21:55;21.60;57.00
6824;DHT22;58633;49.470;11.004;2022-10-12T15:24:20;21.60;57.50
6824;DHT22;58633;49.470;11.004;2022-10-12T15:26:46;21.60;57.10
6824;DHT22;58633;49.470;11.004;2022-10-12T15:29:11;21.40;57.40
6824;DHT22;58633;49.470;11.004;2022-10-12T15:31:37;21.30;57.50
6824;DHT22;58633;49.470;11.004;2022-10-12T15:34:02;21.20;57.60
6824;DHT22;58633;49.470;11.004;2022-10-12T15:36:28;21.10;57.90
6824;DHT22;58633;49.470;11.004;2022-10-12T15:38:54;20.90;57.90
6824;DHT22;58633;49.470;11.004;2022-10-12T15:41:21;20.60;58.10
6824;DHT22;58633;49.470;11.004;2022-10-12T15:43:49;20.50;58.50
6824;DHT22;58633;49.470;11.004;2022-10-12T15:46:15;20.40;58.90
6824;DHT22;58633;49.470;11.004;2022-10-12T15:48:40;19.60;59.10
6824;DHT22;58633;49.470;11.004;2022-10-12T15:51:19;19.50;59.40
6824;DHT22;58633;49.470;11.004;2022-10-12T15:53:47;19.50;60.00
6824;DHT22;58633;49.470;11.004;2022-10-12T15:56:14;19.30;60.20
6824;DHT22;58633;49.470;11.004;2022-10-12T15:58:40;19.00;60.20
6824;DHT22;58633;49.470;11.004;2022-10-12T16:01:08;19.00;60.80
6824;DHT22;58633;49.470;11.004;2022-10-12T16:03:35;19.00;60.40
6824;DHT22;58633;49.470;11.004;2022-10-12T16:06:00;19.00;61.00
6824;DHT22;58633;49.470;11.004;2022-10-12T16:08:26;19.10;61.10
6824;DHT22;58633;49.470;11.004;2022-10-12T16:10:51;18.80;60.90
6824;DHT22;58633;49.470;11.004;2022-10-12T16:13:17;18.60;61.50
6824;DHT22;58633;49.470;11.004;2022-10-12T16:15:43;18.60;62.00
6824;DHT22;58633;49.470;11.004;2022-10-12T16:18:09;18.40;61.40
6824;DHT22;58633;49.470;11.004;2022-10-12T16:20:37;18.50;62.00
6824;DHT22;58633;49.470;11.004;2022-10-12T16:23:05;18.50;62.00
6824;DHT22;58633;49.470;11.004;2022-10-12T16:25:31;18.60;62.30
6824;DHT22;58633;49.470;11.004;2022-10-12T16:27:59;18.40;62.20
6824;DHT22;58633;49.470;11.004;2022-10-12T16:30:25;18.30;62.60
6824;DHT22;58633;49.470;11.004;2022-10-12T16:32:51;18.00;62.00
6824;DHT22;58633;49.470;11.004;2022-10-12T16:35:17;18.00;62.40
6824;DHT22;58633;49.470;11.004;2022-10-12T16:37:43;17.80;62.90
6824;DHT22;58633;49.470;11.004;2022-10-12T16:40:09;17.80;63.00
6824;DHT22;58633;49.470;11.004;2022-10-12T16:42:35;17.80;63.60
6824;DHT22;58633;49.470;11.004;2022-10-12T16:45:01;17.80;63.70
6824;DHT22;58633;49.470;11.004;2022-10-12T16:47:26;17.70;63.20
6824;DHT22;58633;49.470;11.004;2022-10-12T16:49:52;17.70;63.50
6824;DHT22;58633;49.470;11.004;2022-10-12T16:52:21;17.60;63.30
6824;DHT22;58633;49.470;11.004;2022-10-12T16:54:53;17.60;63.60
6824;DHT22;58633;49.470;11.004;2022-10-12T16:57:20;17.70;64.00
6824;DHT22;58633;49.470;11.004;2022-10-12T16:59:46;17.50;64.40
6824;DHT22;58633;49.470;11.004;2022-10-12T17:02:14;17.50;64.20
6824;DHT22;58633;49.470;11.004;2022-10-12T17:04:40;17.50;64.30
6824;DHT22;58633;49.470;11.004;2022-10-12T17:07:05;17.30;64.30
6824;DHT22;58633;49.470;11.004;2022-10-12T17:09:31;17.20;64.50
6824;DHT22;58633;49.470;11.004;2022-10-12T17:11:57;17.30;64.90
6824;DHT22;58633;49.470;11.004;2022-10-12T17:14:22;17.10;65.30
6824;DHT22;58633;49.470;11.004;2022-10-12T17:16:48;17.00;65.20
6824;DHT22;58633;49.470;11.004;2022-10-12T17:19:15;17.00;65.80
6824;DHT22;58633;49.470;11.004;2022-10-12T17:21:42;17.00;66.00
6824;DHT22;58633;49.470;11.004;2022-10-12T17:24:09;16.90;65.60
6824;DHT22;58633;49.470;11.004;2022-10-12T17:26:35;16.90;66.30
6824;DHT22;58633;49.470;11.004;2022-10-12T17:29:05;16.90;66.50
6824;DHT22;58633;49.470;11.004;2022-10-12T17:31:31;16.70;66.60
6824;DHT22;58633;49.470;11.004;2022-10-12T17:33:57;16.70;66.80
6824;DHT22;58633;49.470;11.004;2022-10-12T17:36:24;16.70;67.00
6824;DHT22;58633;49.470;11.004;2022-10-12T17:38:50;16.80;67.00
6824;DHT22;58633;49.470;11.004;2022-10-12T17:41:15;16.80;67.10
6824;DHT22;58633;49.470;11.004;2022-10-12T17:43:41;16.40;66.40
6824;DHT22;58633;49.470;11.004;2022-10-12T17:46:06;16.50;66.80